createdAt,value
2019-01-03T00:02:34.096Z,5.58
2019-01-03T00:05:31.191Z,5.27
2019-01-03T00:08:20.086Z,5.40
2019-01-03T00:11:19.113Z,5.07
2019-01-03T00:14:07.624Z,4.60
2019-01-03T00:17:03.599Z,5.40
2019-01-03T00:20:08.823Z,4.80
2019-01-03T00:23:17.468Z,4.70
2019-01-03T00:26:10.425Z,4.73
2019-01-03T00:29:07.165Z,4.73
2019-01-03T00:32:01.409Z,4.43
2019-01-03T00:34:52.142Z,4.33
2019-01-03T00:37:51.424Z,3.60
2019-01-03T00:40:56.735Z,3.55
2019-01-03T00:43:45.986Z,3.73
2019-01-03T00:46:25.653Z,3.55
2019-01-03T00:49:27.904Z,3.90
2019-01-03T00:52:13.403Z,3.70
2019-01-03T00:55:22.874Z,3.80
2019-01-03T00:58:08.210Z,4.20
2019-01-03T01:01:00.712Z,3.30
2019-01-03T01:03:50.869Z,3.17
2019-01-03T01:06:41.192Z,3.90
2019-01-03T01:09:45.186Z,3.60
2019-01-03T01:12:40.508Z,3.70
2019-01-03T01:15:29.776Z,3.70
2019-01-03T01:18:20.424Z,3.83
2019-01-03T01:21:28.683Z,4.20
2019-01-03T01:24:26.595Z,4.37
2019-01-03T01:27:25.949Z,3.53
2019-01-03T01:30:24.971Z,4.30
2019-01-03T01:33:13.811Z,3.87
2019-01-03T01:36:16.264Z,4.07
2019-01-03T01:39:06.321Z,4.07
2019-01-03T01:41:58.046Z,3.80
2019-01-03T01:44:57.197Z,3.80
2019-01-03T01:47:45.939Z,3.60
2019-01-03T01:50:34.870Z,4.05
2019-01-03T01:53:13.784Z,3.22
2019-01-03T01:56:02.536Z,3.72
2019-01-03T01:59:01.173Z,3.43
2019-01-03T02:01:50.030Z,3.33
2019-01-03T02:04:52.076Z,3.40
2019-01-03T02:07:42.119Z,3.72
2019-01-03T02:10:26.757Z,3.30
2019-01-03T02:13:15.816Z,3.30
2019-01-03T02:16:08.220Z,3.87
2019-01-03T02:19:00.902Z,3.20
2019-01-03T02:21:49.957Z,3.37
2019-01-03T02:24:38.871Z,3.50
2019-01-03T02:27:38.268Z,3.10
2019-01-03T02:30:27.307Z,4.07
2019-01-03T02:33:16.592Z,3.10
2019-01-03T02:36:00.372Z,2.80
2019-01-03T02:38:48.913Z,3.57
2019-01-03T02:41:43.951Z,3.17
2019-01-03T02:44:39.937Z,3.12
2019-01-03T02:47:39.195Z,3.35
2019-01-03T02:50:29.270Z,2.93
2019-01-03T02:53:18.015Z,3.57
2019-01-03T02:56:11.832Z,3.30
2019-01-03T02:59:01.096Z,3.27
2019-01-03T03:02:09.669Z,2.87
2019-01-03T03:05:03.757Z,3.37
2019-01-03T03:07:59.564Z,3.50
2019-01-03T03:10:58.828Z,3.42
2019-01-03T03:13:47.502Z,4.47
2019-01-03T03:16:40.420Z,3.50
2019-01-03T03:19:19.309Z,3.03
2019-01-03T03:22:09.501Z,3.40
2019-01-03T03:25:09.153Z,3.17
2019-01-03T03:27:58.020Z,2.80
2019-01-03T03:31:04.158Z,3.10
2019-01-03T03:33:54.052Z,2.83
2019-01-03T03:36:49.983Z,3.03
2019-01-03T03:39:46.003Z,3.25
2019-01-03T03:42:41.899Z,3.25
2019-01-03T03:45:30.866Z,3.03
2019-01-03T03:48:18.936Z,3.53
2019-01-03T03:51:15.035Z,3.20
2019-01-03T03:54:05.236Z,2.90
2019-01-03T03:56:54.073Z,2.70
2019-01-03T03:59:59.255Z,2.57
2019-01-03T04:02:49.316Z,3.20
2019-01-03T04:05:48.802Z,2.40
2019-01-03T04:08:39.694Z,3.10
2019-01-03T04:11:28.474Z,3.23
2019-01-03T04:14:16.030Z,3.27
2019-01-03T04:17:06.028Z,2.97
2019-01-03T04:20:02.459Z,3.60
2019-01-03T04:22:51.472Z,3.57
2019-01-03T04:25:52.082Z,3.67
2019-01-03T04:28:52.896Z,3.23
2019-01-03T04:31:36.237Z,3.40
2019-01-03T04:34:25.143Z,3.30
2019-01-03T04:37:14.403Z,3.50
2019-01-03T04:40:07.430Z,2.90
2019-01-03T04:42:56.195Z,2.83
2019-01-03T04:45:43.725Z,2.77
2019-01-03T04:48:38.672Z,3.33
2019-01-03T04:51:27.486Z,3.30
2019-01-03T04:54:20.790Z,3.40
2019-01-03T04:57:09.571Z,3.50
2019-01-03T05:00:00.360Z,3.42
2019-01-03T05:02:53.583Z,3.63
2019-01-03T05:05:46.421Z,3.10
2019-01-03T05:08:35.152Z,3.52
2019-01-03T05:11:24.248Z,4.17
2019-01-03T05:14:13.736Z,3.17
2019-01-03T05:17:02.697Z,3.90
2019-01-03T05:19:51.338Z,3.20
2019-01-03T05:22:40.987Z,3.65
2019-01-03T05:25:26.843Z,3.08
2019-01-03T05:28:25.923Z,3.90
2019-01-03T05:31:21.805Z,3.57
2019-01-03T05:34:27.250Z,3.80
2019-01-03T05:37:17.524Z,3.00
2019-01-03T05:40:25.370Z,4.83
2019-01-03T05:43:15.368Z,5.83
2019-01-03T05:46:20.193Z,5.30
2019-01-03T05:49:08.695Z,6.00
2019-01-03T05:51:57.812Z,5.53
2019-01-03T05:54:59.960Z,6.60
2019-01-03T05:57:48.869Z,5.07
2019-01-03T06:00:38.989Z,5.35
2019-01-03T06:03:43.027Z,4.63
2019-01-03T06:06:32.175Z,5.35
2019-01-03T06:09:24.721Z,5.20
2019-01-03T06:12:13.961Z,3.70
2019-01-03T06:15:06.930Z,4.37
2019-01-03T06:18:00.171Z,4.13
2019-01-03T06:20:59.781Z,3.17
2019-01-03T06:23:55.699Z,4.63
2019-01-03T06:26:51.824Z,3.98
2019-01-03T06:29:47.943Z,5.07
2019-01-03T06:32:44.096Z,4.55
2019-01-03T06:35:26.796Z,3.27
2019-01-03T06:38:13.237Z,4.62
2019-01-03T06:41:00.516Z,4.40
2019-01-03T06:43:50.573Z,4.00
2019-01-03T06:46:39.590Z,5.73
2019-01-03T06:49:36.195Z,4.40
2019-01-03T06:52:25.715Z,4.43
2019-01-03T06:55:16.014Z,3.70
2019-01-03T06:58:08.804Z,3.83
2019-01-03T07:01:05.039Z,4.27
2019-01-03T07:04:13.475Z,4.10
2019-01-03T07:07:12.889Z,3.77
2019-01-03T07:10:08.936Z,3.97
2019-01-03T07:13:09.222Z,5.30
2019-01-03T07:16:02.477Z,4.60
2019-01-03T07:18:56.737Z,4.27
2019-01-03T07:21:49.963Z,4.25
2019-01-03T07:24:39.621Z,4.22
2019-01-03T07:27:32.600Z,4.92
2019-01-03T07:30:37.748Z,4.93
2019-01-03T07:33:26.522Z,5.20
2019-01-03T07:36:15.218Z,4.93
2019-01-03T07:39:04.201Z,5.53
2019-01-03T07:41:55.295Z,5.13
2019-01-03T07:44:44.179Z,5.60
2019-01-03T07:47:53.881Z,5.15
2019-01-03T07:50:43.887Z,5.30
2019-01-03T07:53:33.082Z,5.10
2019-01-03T07:56:29.016Z,4.57
2019-01-03T07:59:35.348Z,4.90
2019-01-03T08:02:24.281Z,6.10
2019-01-03T08:05:17.602Z,5.87
2019-01-03T08:08:06.695Z,5.47
2019-01-03T08:10:57.354Z,5.10
2019-01-03T08:13:45.436Z,6.20
2019-01-03T08:16:53.696Z,5.47
2019-01-03T08:19:43.047Z,5.10
2019-01-03T08:22:44.635Z,5.72
2019-01-03T08:25:33.939Z,6.50
2019-01-03T08:28:43.699Z,5.22
2019-01-03T08:31:35.740Z,6.25
2019-01-03T08:34:41.356Z,6.42
2019-01-03T08:37:40.435Z,6.87
2019-01-03T08:40:35.956Z,5.60
2019-01-03T08:43:27.204Z,5.12
2019-01-03T08:46:20.313Z,4.87
2019-01-03T08:49:13.499Z,4.73
2019-01-03T08:52:02.224Z,5.55
2019-01-03T08:55:01.680Z,5.47
2019-01-03T08:58:03.845Z,6.20
2019-01-03T09:00:53.763Z,6.03
2019-01-03T09:03:43.741Z,6.50
2019-01-03T09:06:32.469Z,6.58
2019-01-03T09:09:21.138Z,6.97
2019-01-03T09:12:20.351Z,6.17
2019-01-03T09:15:09.081Z,6.67
2019-01-03T09:18:09.557Z,6.97
2019-01-03T09:20:56.794Z,6.27
2019-01-03T09:23:52.942Z,5.33
2019-01-03T09:26:46.104Z,6.40
2019-01-03T09:29:39.303Z,7.17
2019-01-03T09:32:45.608Z,5.80
2019-01-03T09:35:50.871Z,6.97
2019-01-03T09:38:43.800Z,6.70
2019-01-03T09:41:32.754Z,6.80
2019-01-03T09:44:27.124Z,7.00
2019-01-03T09:46:58.189Z,6.50
2019-01-03T09:49:29.437Z,6.00
2019-01-03T09:52:00.525Z,6.97
2019-01-03T09:54:31.710Z,7.10
2019-01-03T09:57:03.101Z,7.20
2019-01-03T09:59:34.719Z,7.83
2019-01-03T10:02:06.319Z,6.80
2019-01-03T10:04:37.435Z,6.27
2019-01-03T10:07:08.517Z,5.87
2019-01-03T10:09:39.854Z,6.80
2019-01-03T10:12:10.907Z,6.23
2019-01-03T10:14:42.311Z,6.43
2019-01-03T10:17:15.048Z,6.97
2019-01-03T10:19:48.050Z,6.10
2019-01-03T10:22:19.118Z,5.87
2019-01-03T10:24:50.404Z,6.60
2019-01-03T10:27:21.668Z,6.30
2019-01-03T10:29:53.013Z,7.33
2019-01-03T10:32:24.332Z,6.37
2019-01-03T10:34:55.544Z,8.38
2019-01-03T10:37:27.526Z,8.17
2019-01-03T10:39:58.778Z,6.72
2019-01-03T10:42:29.868Z,5.13
2019-01-03T10:45:00.852Z,5.67
2019-01-03T10:47:32.275Z,6.70
2019-01-03T10:50:05.335Z,6.00
2019-01-03T10:52:36.525Z,5.67
2019-01-03T10:55:09.112Z,5.83
2019-01-03T10:57:40.082Z,5.93
2019-01-03T11:00:11.246Z,4.60
2019-01-03T11:02:42.527Z,5.50
2019-01-03T11:05:13.542Z,5.17
2019-01-03T11:07:44.501Z,6.47
2019-01-03T11:10:15.869Z,6.30
2019-01-03T11:12:47.228Z,6.15
2019-01-03T11:15:18.428Z,6.03
2019-01-03T11:17:49.583Z,4.70
2019-01-03T11:20:20.759Z,4.90
2019-01-03T11:22:52.116Z,3.93
2019-01-03T11:25:23.434Z,4.65
2019-01-03T11:27:55.055Z,3.70
2019-01-03T11:30:27.528Z,4.10
2019-01-03T11:32:58.601Z,4.62
2019-01-03T11:35:29.806Z,5.87
2019-01-03T11:38:00.951Z,4.10
2019-01-03T11:40:32.054Z,3.10
2019-01-03T11:43:03.610Z,4.13
2019-01-03T11:45:34.640Z,3.80
2019-01-03T11:48:06.013Z,4.03
2019-01-03T11:50:38.621Z,6.10
2019-01-03T11:53:09.712Z,3.57
2019-01-03T11:55:41.126Z,4.57
2019-01-03T11:58:12.889Z,4.42
2019-01-03T12:00:44.264Z,3.83
2019-01-03T12:03:15.326Z,4.62
2019-01-03T12:05:46.419Z,6.77
2019-01-03T12:08:17.688Z,3.43
2019-01-03T12:10:48.960Z,3.57
2019-01-03T12:13:20.252Z,3.40
2019-01-03T12:15:51.664Z,3.57
2019-01-03T12:18:22.896Z,3.30
2019-01-03T12:20:54.387Z,4.90
2019-01-03T12:23:25.765Z,3.27
2019-01-03T12:25:57.149Z,3.50
2019-01-03T12:28:29.867Z,3.63
2019-01-03T12:31:02.058Z,4.90
2019-01-03T12:33:33.371Z,4.50
2019-01-03T12:36:06.176Z,2.92
2019-01-03T12:38:38.461Z,2.40
2019-01-03T12:41:09.534Z,2.83
2019-01-03T12:43:40.745Z,3.23
2019-01-03T12:46:11.863Z,2.40
2019-01-03T12:48:45.553Z,3.20
2019-01-03T12:51:15.819Z,3.27
2019-01-03T12:53:46.907Z,4.17
2019-01-03T12:56:18.007Z,4.77
2019-01-03T12:58:49.165Z,4.90
2019-01-03T13:01:20.413Z,5.73
2019-01-03T13:03:51.478Z,4.30
2019-01-03T13:06:23.029Z,4.70
2019-01-03T13:08:56.865Z,5.13
2019-01-03T13:11:29.070Z,5.42
2019-01-03T13:14:00.574Z,5.70
2019-01-03T13:16:31.924Z,6.93
2019-01-03T13:19:03.066Z,6.00
2019-01-03T13:21:34.375Z,6.37
2019-01-03T13:24:05.626Z,5.83
2019-01-03T13:26:37.313Z,5.80
2019-01-03T13:29:08.380Z,8.87
2019-01-03T13:31:39.612Z,7.03
2019-01-03T13:34:10.835Z,2.85
2019-01-03T13:36:41.837Z,3.10
2019-01-03T13:39:12.916Z,2.65
2019-01-03T13:41:45.078Z,3.10
2019-01-03T13:44:16.235Z,3.00
2019-01-03T13:46:47.381Z,2.80
2019-01-03T13:49:18.434Z,4.28
2019-01-03T13:51:49.472Z,5.13
2019-01-03T13:54:20.710Z,4.77
2019-01-03T13:56:51.997Z,3.60
2019-01-03T13:59:24.525Z,3.60
2019-01-03T14:01:55.533Z,3.15
2019-01-03T14:04:26.794Z,3.10
2019-01-03T14:06:57.921Z,3.10
2019-01-03T14:09:28.847Z,2.97
2019-01-03T14:12:00.912Z,2.30
2019-01-03T14:14:32.476Z,2.90
2019-01-03T14:17:03.978Z,2.90
2019-01-03T14:19:34.942Z,3.07
2019-01-03T14:22:06.811Z,3.03
2019-01-03T14:24:38.497Z,3.77
2019-01-03T14:27:09.846Z,3.77
2019-01-03T14:29:41.098Z,3.70
2019-01-03T14:32:12.346Z,3.72
2019-01-03T14:34:43.452Z,3.90
2019-01-03T14:37:14.646Z,4.63
2019-01-03T14:39:46.808Z,4.90
2019-01-03T14:42:17.959Z,5.05
2019-01-03T14:44:49.315Z,5.10
2019-01-03T14:47:20.502Z,5.72
2019-01-03T14:49:52.186Z,5.92
2019-01-03T14:52:23.451Z,5.50
2019-01-03T14:54:55.050Z,4.90
2019-01-03T14:57:26.323Z,4.70
2019-01-03T14:59:57.488Z,5.07
2019-01-03T15:02:28.882Z,5.13
2019-01-03T15:05:01.155Z,5.43
2019-01-03T15:07:32.449Z,4.70
2019-01-03T15:10:04.763Z,4.93
2019-01-03T15:12:36.166Z,8.50
2019-01-03T15:15:08.986Z,6.57
2019-01-03T15:17:40.286Z,7.23
2019-01-03T15:20:12.353Z,5.83
2019-01-03T15:22:43.585Z,5.87
2019-01-03T15:25:14.781Z,7.10
2019-01-03T15:27:46.605Z,5.87
2019-01-03T15:30:17.640Z,6.03
2019-01-03T15:32:49.240Z,5.90
2019-01-03T15:35:20.458Z,6.08
2019-01-03T15:37:51.740Z,7.20
2019-01-03T15:40:23.018Z,8.23
2019-01-03T15:42:54.408Z,7.50
2019-01-03T15:45:25.850Z,11.80
2019-01-03T15:47:57.013Z,9.83
2019-01-03T15:50:28.073Z,6.73
2019-01-03T15:52:59.232Z,5.90
2019-01-03T15:55:30.511Z,6.20
2019-01-03T15:58:01.809Z,6.80
2019-01-03T16:00:32.891Z,6.57
2019-01-03T16:03:05.442Z,7.30
2019-01-03T16:05:36.731Z,7.50
2019-01-03T16:08:07.825Z,7.50
2019-01-03T16:10:39.158Z,7.27
2019-01-03T16:13:10.670Z,7.03
2019-01-03T16:15:42.074Z,6.73
2019-01-03T16:18:13.716Z,6.55
2019-01-03T16:20:44.725Z,6.83
2019-01-03T16:23:15.911Z,7.03
2019-01-03T16:25:47.101Z,6.12
2019-01-03T16:28:18.148Z,6.08
2019-01-03T16:30:49.234Z,5.50
2019-01-03T16:33:20.468Z,5.45
2019-01-03T16:35:51.420Z,4.95
2019-01-03T16:38:22.578Z,5.37
2019-01-03T16:40:53.667Z,5.57
2019-01-03T16:43:24.795Z,6.87
2019-01-03T16:45:56.011Z,6.63
2019-01-03T16:48:27.454Z,6.10
2019-01-03T16:50:58.490Z,6.43
2019-01-03T16:53:29.844Z,8.30
2019-01-03T16:56:01.695Z,7.37
2019-01-03T16:58:32.870Z,8.70
2019-01-03T17:01:04.311Z,9.40
2019-01-03T17:03:35.576Z,10.60
2019-01-03T17:06:06.721Z,12.97
2019-01-03T17:08:37.791Z,8.83
2019-01-03T17:11:09.094Z,6.87
2019-01-03T17:13:42.296Z,6.07
2019-01-03T17:16:13.766Z,6.00
2019-01-03T17:18:46.228Z,6.30
2019-01-03T17:21:17.465Z,5.15
2019-01-03T17:23:49.368Z,5.93
2019-01-03T17:26:20.547Z,7.00
2019-01-03T17:28:52.761Z,6.47
2019-01-03T17:31:26.478Z,5.20
2019-01-03T17:33:57.631Z,5.87
2019-01-03T17:36:28.700Z,5.43
2019-01-03T17:38:59.830Z,5.90
2019-01-03T17:41:30.921Z,5.90
2019-01-03T17:44:02.253Z,6.40
2019-01-03T17:46:33.375Z,7.13
2019-01-03T17:49:04.611Z,6.80
2019-01-03T17:51:35.767Z,7.12
2019-01-03T17:54:06.895Z,6.80
2019-01-03T17:56:39.149Z,7.50
2019-01-03T17:59:10.564Z,6.23
2019-01-03T18:01:42.187Z,8.67
2019-01-03T18:04:13.410Z,17.17
2019-01-03T18:06:44.448Z,10.58
2019-01-03T18:09:15.943Z,7.85
2019-01-03T18:11:46.951Z,16.13
2019-01-03T18:14:18.803Z,12.95
2019-01-03T18:16:50.380Z,10.30
2019-01-03T18:19:21.618Z,7.40
2019-01-03T18:21:52.687Z,7.13
2019-01-03T18:24:23.968Z,7.30
2019-01-03T18:26:56.650Z,29.10
2019-01-03T18:29:29.608Z,11.47
2019-01-03T18:32:00.685Z,16.33
2019-01-03T18:34:32.208Z,9.00
2019-01-03T18:37:03.336Z,6.60
2019-01-03T18:39:34.620Z,6.90
2019-01-03T18:42:05.955Z,6.47
2019-01-03T18:44:39.025Z,14.57
2019-01-03T18:47:10.668Z,8.40
2019-01-03T18:49:41.843Z,7.30
2019-01-03T18:52:13.199Z,6.40
2019-01-03T18:54:44.287Z,7.53
2019-01-03T18:57:15.946Z,6.78
2019-01-03T18:59:47.070Z,5.70
2019-01-03T19:02:18.365Z,5.67
2019-01-03T19:04:49.401Z,8.03
2019-01-03T19:07:20.520Z,7.53
2019-01-03T19:09:51.869Z,11.10
2019-01-03T19:12:22.833Z,9.73
2019-01-03T19:14:54.078Z,8.60
2019-01-03T19:17:25.153Z,10.63
2019-01-03T19:19:56.534Z,11.70
2019-01-03T19:22:27.699Z,11.60
2019-01-03T19:24:59.493Z,10.00
2019-01-03T19:27:30.638Z,11.70
2019-01-03T19:30:02.111Z,12.57
2019-01-03T19:32:34.613Z,13.67
2019-01-03T19:35:06.388Z,12.07
2019-01-03T19:37:37.712Z,11.83
2019-01-03T19:40:10.692Z,16.30
2019-01-03T19:42:42.705Z,17.13
2019-01-03T19:45:13.942Z,15.83
2019-01-03T19:47:45.313Z,14.63
2019-01-03T19:50:19.073Z,12.43
2019-01-03T19:52:50.342Z,15.07
2019-01-03T19:55:21.556Z,12.68
2019-01-03T19:57:52.796Z,15.90
2019-01-03T20:00:25.382Z,21.30
2019-01-03T20:02:56.570Z,10.60
2019-01-03T20:05:27.879Z,13.20
2019-01-03T20:07:59.319Z,12.63
2019-01-03T20:10:31.694Z,13.20
2019-01-03T20:13:02.963Z,12.70
2019-01-03T20:15:35.580Z,12.80
2019-01-03T20:18:08.758Z,10.40
2019-01-03T20:20:40.023Z,11.80
2019-01-03T20:23:11.037Z,12.63
2019-01-03T20:25:42.365Z,15.10
2019-01-03T20:28:13.353Z,13.88
2019-01-03T20:30:45.686Z,16.07
2019-01-03T20:33:17.141Z,18.23
2019-01-03T20:35:48.272Z,11.67
2019-01-03T20:38:19.642Z,16.10
2019-01-03T20:40:50.827Z,14.60
2019-01-03T20:43:22.010Z,15.33
2019-01-03T20:45:53.264Z,12.60
2019-01-03T20:48:24.583Z,13.53
2019-01-03T20:50:56.246Z,11.83
2019-01-03T20:53:27.458Z,13.43
2019-01-03T20:55:58.527Z,10.83
2019-01-03T20:58:29.950Z,10.53
2019-01-03T21:01:01.282Z,11.77
2019-01-03T21:03:32.358Z,12.63
2019-01-03T21:06:04.278Z,11.70
2019-01-03T21:08:36.461Z,11.70
2019-01-03T21:11:07.710Z,13.67
2019-01-03T21:13:38.710Z,13.65
2019-01-03T21:16:09.968Z,10.70
2019-01-03T21:18:40.999Z,13.40
2019-01-03T21:21:12.058Z,14.27
2019-01-03T21:23:43.191Z,13.60
2019-01-03T21:26:14.533Z,11.73
2019-01-03T21:28:46.697Z,10.83
2019-01-03T21:31:18.322Z,9.40
2019-01-03T21:33:49.583Z,9.77
2019-01-03T21:36:21.118Z,9.20
2019-01-03T21:38:52.245Z,9.47
2019-01-03T21:41:23.345Z,9.23
2019-01-03T21:43:54.631Z,8.97
2019-01-03T21:46:25.863Z,8.50
2019-01-03T21:48:57.015Z,9.37
2019-01-03T21:51:30.006Z,9.77
2019-01-03T21:54:01.277Z,9.13
2019-01-03T21:56:32.620Z,9.30
2019-01-03T21:59:05.418Z,7.93
2019-01-03T22:01:36.792Z,8.13
2019-01-03T22:04:07.965Z,8.83
2019-01-03T22:06:39.219Z,8.43
2019-01-03T22:09:11.922Z,8.57
2019-01-03T22:11:43.570Z,7.80
2019-01-03T22:14:14.724Z,8.78
2019-01-03T22:16:45.738Z,7.40
2019-01-03T22:19:16.807Z,7.00
2019-01-03T22:21:48.025Z,7.07
2019-01-03T22:24:19.316Z,7.80
2019-01-03T22:26:50.441Z,7.50
2019-01-03T22:29:21.659Z,8.15
2019-01-03T22:31:53.976Z,7.80
2019-01-03T22:34:25.058Z,7.50
2019-01-03T22:36:56.392Z,7.80
2019-01-03T22:39:27.778Z,7.67
2019-01-03T22:41:58.974Z,8.80
2019-01-03T22:44:30.532Z,8.30
2019-01-03T22:47:01.998Z,8.07
2019-01-03T22:49:33.042Z,7.73
2019-01-03T22:52:04.090Z,7.43
2019-01-03T22:54:35.350Z,7.73
2019-01-03T22:57:06.694Z,8.00
2019-01-03T22:59:37.883Z,7.60
2019-01-03T23:02:09.025Z,8.18
2019-01-03T23:04:40.553Z,7.57
2019-01-03T23:07:12.019Z,7.20
2019-01-03T23:09:43.248Z,7.57
2019-01-03T23:12:14.720Z,7.80
2019-01-03T23:14:45.816Z,7.57
2019-01-03T23:17:17.052Z,8.20
2019-01-03T23:19:48.150Z,7.53
2019-01-03T23:22:19.403Z,7.53
2019-01-03T23:24:51.071Z,7.70
2019-01-03T23:27:23.010Z,7.60
2019-01-03T23:29:54.413Z,7.80
2019-01-03T23:32:26.320Z,7.17
2019-01-03T23:34:59.252Z,7.17
2019-01-03T23:37:30.705Z,7.20
2019-01-03T23:40:03.055Z,7.60
2019-01-03T23:42:34.365Z,7.60
2019-01-03T23:45:30.763Z,8.03
2019-01-03T23:48:02.530Z,7.90
2019-01-03T23:50:34.959Z,8.13
2019-01-03T23:53:06.310Z,7.87
2019-01-03T23:55:45.574Z,7.40
2019-01-03T23:58:18.706Z,7.67
